sensor_id;sensor_type;location;lat;lon;timestamp;P1;durP1;ratioP1;P2;durP2;ratioP2
27209;SDS011;14721;42.668;23.386;2024-02-23T00:01:16;15.60;;;7.03;;
27209;SDS011;14721;42.668;23.386;2024-02-23T00:03:45;14.70;;;7.43;;
27209;SDS011;14721;42.668;23.386;2024-02-23T00:06:13;22.10;;;9.90;;
27209;SDS011;14721;42.668;23.386;2024-02-23T00:08:41;20.63;;;9.13;;
27209;SDS011;14721;42.668;23.386;2024-02-23T00:11:08;21.97;;;10.07;;
27209;SDS011;14721;42.668;23.386;2024-02-23T00:13:36;21.33;;;9.40;;
27209;SDS011;14721;42.668;23.386;2024-02-23T00:16:04;20.20;;;9.50;;
27209;SDS011;14721;42.668;23.386;2024-02-23T00:18:43;25.70;;;10.30;;
27209;SDS011;14721;42.668;23.386;2024-02-23T00:21:11;22.33;;;10.73;;
27209;SDS011;14721;42.668;23.386;2024-02-23T00:23:37;21.57;;;9.67;;
27209;SDS011;14721;42.668;23.386;2024-02-23T00:26:12;19.73;;;9.60;;
27209;SDS011;14721;42.668;23.386;2024-02-23T00:28:39;18.17;;;8.97;;
27209;SDS011;14721;42.668;23.386;2024-02-23T00:31:07;19.00;;;8.57;;
27209;SDS011;14721;42.668;23.386;2024-02-23T00:33:36;16.47;;;8.27;;
27209;SDS011;14721;42.668;23.386;2024-02-23T00:36:02;15.07;;;7.57;;
27209;SDS011;14721;42.668;23.386;2024-02-23T00:38:28;19.00;;;8.50;;
27209;SDS011;14721;42.668;23.386;2024-02-23T00:40:54;18.60;;;9.20;;
27209;SDS011;14721;42.668;23.386;2024-02-23T00:43:22;17.90;;;8.70;;
27209;SDS011;14721;42.668;23.386;2024-02-23T00:45:48;17.40;;;9.27;;
27209;SDS011;14721;42.668;23.386;2024-02-23T00:48:14;17.43;;;8.57;;
27209;SDS011;14721;42.668;23.386;2024-02-23T00:50:40;18.27;;;9.47;;
27209;SDS011;14721;42.668;23.386;2024-02-23T00:53:06;17.13;;;7.60;;
27209;SDS011;14721;42.668;23.386;2024-02-23T00:55:34;13.97;;;6.83;;
27209;SDS011;14721;42.668;23.386;2024-02-23T00:58:00;12.40;;;6.70;;
27209;SDS011;14721;42.668;23.386;2024-02-23T01:00:34;13.53;;;6.13;;
27209;SDS011;14721;42.668;23.386;2024-02-23T01:03:07;15.57;;;6.57;;
27209;SDS011;14721;42.668;23.386;2024-02-23T01:05:33;14.90;;;6.73;;
27209;SDS011;14721;42.668;23.386;2024-02-23T01:08:04;14.90;;;6.53;;
27209;SDS011;14721;42.668;23.386;2024-02-23T01:10:43;13.97;;;6.23;;
27209;SDS011;14721;42.668;23.386;2024-02-23T01:13:33;14.10;;;7.20;;
27209;SDS011;14721;42.668;23.386;2024-02-23T01:15:59;15.17;;;7.20;;
27209;SDS011;14721;42.668;23.386;2024-02-23T01:18:27;12.97;;;7.20;;
27209;SDS011;14721;42.668;23.386;2024-02-23T01:21:10;13.27;;;6.97;;
27209;SDS011;14721;42.668;23.386;2024-02-23T01:23:37;15.20;;;7.10;;
27209;SDS011;14721;42.668;23.386;2024-02-23T01:26:02;16.83;;;7.13;;
27209;SDS011;14721;42.668;23.386;2024-02-23T01:28:31;14.00;;;6.27;;
27209;SDS011;14721;42.668;23.386;2024-02-23T01:31:23;11.23;;;5.60;;
27209;SDS011;14721;42.668;23.386;2024-02-23T01:33:51;12.93;;;5.90;;
27209;SDS011;14721;42.668;23.386;2024-02-23T01:36:16;12.03;;;6.13;;
27209;SDS011;14721;42.668;23.386;2024-02-23T01:38:43;15.77;;;6.23;;
27209;SDS011;14721;42.668;23.386;2024-02-23T01:41:08;11.77;;;6.23;;
27209;SDS011;14721;42.668;23.386;2024-02-23T01:43:36;11.17;;;5.57;;
27209;SDS011;14721;42.668;23.386;2024-02-23T01:46:01;12.53;;;5.80;;
27209;SDS011;14721;42.668;23.386;2024-02-23T01:48:28;12.03;;;5.57;;
27209;SDS011;14721;42.668;23.386;2024-02-23T01:50:56;13.73;;;6.80;;
27209;SDS011;14721;42.668;23.386;2024-02-23T01:53:22;11.80;;;6.07;;
27209;SDS011;14721;42.668;23.386;2024-02-23T01:55:55;8.73;;;5.30;;
27209;SDS011;14721;42.668;23.386;2024-02-23T01:58:22;11.93;;;6.70;;
27209;SDS011;14721;42.668;23.386;2024-02-23T02:00:59;12.73;;;6.03;;
27209;SDS011;14721;42.668;23.386;2024-02-23T02:03:27;16.53;;;6.47;;
27209;SDS011;14721;42.668;23.386;2024-02-23T02:06:03;14.00;;;6.93;;
27209;SDS011;14721;42.668;23.386;2024-02-23T02:08:30;10.53;;;6.80;;
27209;SDS011;14721;42.668;23.386;2024-02-23T02:10:58;12.77;;;5.87;;
27209;SDS011;14721;42.668;23.386;2024-02-23T02:13:30;14.43;;;7.07;;
27209;SDS011;14721;42.668;23.386;2024-02-23T02:15:57;15.13;;;5.97;;
27209;SDS011;14721;42.668;23.386;2024-02-23T02:18:25;14.73;;;6.37;;
27209;SDS011;14721;42.668;23.386;2024-02-23T02:20:52;13.27;;;7.27;;
27209;SDS011;14721;42.668;23.386;2024-02-23T02:23:24;12.93;;;6.93;;
27209;SDS011;14721;42.668;23.386;2024-02-23T02:25:59;12.63;;;6.37;;
27209;SDS011;14721;42.668;23.386;2024-02-23T02:28:25;13.50;;;7.70;;
27209;SDS011;14721;42.668;23.386;2024-02-23T02:30:53;15.27;;;7.00;;
27209;SDS011;14721;42.668;23.386;2024-02-23T02:33:20;15.97;;;6.73;;
27209;SDS011;14721;42.668;23.386;2024-02-23T02:35:55;14.50;;;7.70;;
27209;SDS011;14721;42.668;23.386;2024-02-23T02:38:20;16.77;;;7.97;;
27209;SDS011;14721;42.668;23.386;2024-02-23T02:40:46;15.37;;;6.70;;
27209;SDS011;14721;42.668;23.386;2024-02-23T02:43:11;14.90;;;7.87;;
27209;SDS011;14721;42.668;23.386;2024-02-23T02:45:37;16.20;;;7.20;;
27209;SDS011;14721;42.668;23.386;2024-02-23T02:48:05;19.27;;;7.97;;
27209;SDS011;14721;42.668;23.386;2024-02-23T02:50:31;15.00;;;7.07;;
27209;SDS011;14721;42.668;23.386;2024-02-23T02:52:56;16.67;;;7.30;;
27209;SDS011;14721;42.668;23.386;2024-02-23T02:55:24;16.80;;;8.20;;
27209;SDS011;14721;42.668;23.386;2024-02-23T02:57:50;17.73;;;7.70;;
27209;SDS011;14721;42.668;23.386;2024-02-23T03:00:16;20.07;;;7.63;;
27209;SDS011;14721;42.668;23.386;2024-02-23T03:02:41;16.83;;;7.83;;
27209;SDS011;14721;42.668;23.386;2024-02-23T03:05:14;16.07;;;7.30;;
27209;SDS011;14721;42.668;23.386;2024-02-23T03:07:43;15.50;;;8.33;;
27209;SDS011;14721;42.668;23.386;2024-02-23T03:10:09;13.80;;;7.00;;
27209;SDS011;14721;42.668;23.386;2024-02-23T03:12:59;16.47;;;6.97;;
27209;SDS011;14721;42.668;23.386;2024-02-23T03:15:27;12.37;;;6.50;;
27209;SDS011;14721;42.668;23.386;2024-02-23T03:17:53;13.33;;;6.03;;
27209;SDS011;14721;42.668;23.386;2024-02-23T03:23:42;13.17;;;7.20;;
27209;SDS011;14721;42.668;23.386;2024-02-23T03:26:10;11.80;;;6.37;;
27209;SDS011;14721;42.668;23.386;2024-02-23T03:28:35;15.53;;;6.63;;
27209;SDS011;14721;42.668;23.386;2024-02-23T03:31:01;12.97;;;6.67;;
27209;SDS011;14721;42.668;23.386;2024-02-23T03:33:28;13.10;;;6.73;;
27209;SDS011;14721;42.668;23.386;2024-02-23T03:35:53;10.93;;;5.90;;
27209;SDS011;14721;42.668;23.386;2024-02-23T03:38:21;13.97;;;6.63;;
27209;SDS011;14721;42.668;23.386;2024-02-23T03:40:47;13.90;;;6.67;;
27209;SDS011;14721;42.668;23.386;2024-02-23T03:43:12;13.17;;;6.47;;
27209;SDS011;14721;42.668;23.386;2024-02-23T03:45:38;10.83;;;6.23;;
27209;SDS011;14721;42.668;23.386;2024-02-23T03:48:07;11.77;;;5.93;;
27209;SDS011;14721;42.668;23.386;2024-02-23T03:50:35;11.10;;;6.07;;
27209;SDS011;14721;42.668;23.386;2024-02-23T03:56:26;13.20;;;6.37;;
27209;SDS011;14721;42.668;23.386;2024-02-23T03:58:51;13.70;;;6.73;;
27209;SDS011;14721;42.668;23.386;2024-02-23T04:01:20;11.97;;;6.63;;
27209;SDS011;14721;42.668;23.386;2024-02-23T04:03:47;14.47;;;6.70;;
27209;SDS011;14721;42.668;23.386;2024-02-23T04:06:15;15.70;;;7.23;;
27209;SDS011;14721;42.668;23.386;2024-02-23T04:08:42;13.27;;;7.43;;
27209;SDS011;14721;42.668;23.386;2024-02-23T04:11:08;12.67;;;6.50;;
27209;SDS011;14721;42.668;23.386;2024-02-23T04:13:33;15.40;;;6.30;;
27209;SDS011;14721;42.668;23.386;2024-02-23T04:16:00;14.07;;;5.90;;
27209;SDS011;14721;42.668;23.386;2024-02-23T04:18:27;9.47;;;5.57;;
27209;SDS011;14721;42.668;23.386;2024-02-23T04:20:53;13.10;;;6.40;;
27209;SDS011;14721;42.668;23.386;2024-02-23T04:23:18;10.40;;;6.50;;
27209;SDS011;14721;42.668;23.386;2024-02-23T04:25:44;11.63;;;6.27;;
27209;SDS011;14721;42.668;23.386;2024-02-23T04:28:09;12.07;;;6.13;;
27209;SDS011;14721;42.668;23.386;2024-02-23T04:30:35;11.50;;;5.77;;
27209;SDS011;14721;42.668;23.386;2024-02-23T04:33:00;10.97;;;5.13;;
27209;SDS011;14721;42.668;23.386;2024-02-23T04:35:33;12.63;;;6.50;;
27209;SDS011;14721;42.668;23.386;2024-02-23T04:37:59;11.07;;;5.80;;
27209;SDS011;14721;42.668;23.386;2024-02-23T04:40:27;10.60;;;5.03;;
27209;SDS011;14721;42.668;23.386;2024-02-23T04:43:04;12.47;;;6.13;;
27209;SDS011;14721;42.668;23.386;2024-02-23T04:45:29;10.30;;;5.30;;
27209;SDS011;14721;42.668;23.386;2024-02-23T04:47:55;14.33;;;6.03;;
27209;SDS011;14721;42.668;23.386;2024-02-23T04:50:21;12.90;;;6.47;;
27209;SDS011;14721;42.668;23.386;2024-02-23T04:52:48;12.57;;;5.83;;
27209;SDS011;14721;42.668;23.386;2024-02-23T04:55:16;10.27;;;5.37;;
27209;SDS011;14721;42.668;23.386;2024-02-23T04:57:43;11.60;;;5.57;;
27209;SDS011;14721;42.668;23.386;2024-02-23T05:00:09;14.23;;;6.67;;
27209;SDS011;14721;42.668;23.386;2024-02-23T05:02:38;11.73;;;6.17;;
27209;SDS011;14721;42.668;23.386;2024-02-23T05:05:03;13.87;;;7.13;;
27209;SDS011;14721;42.668;23.386;2024-02-23T05:07:33;10.33;;;5.77;;
27209;SDS011;14721;42.668;23.386;2024-02-23T05:09:59;13.97;;;6.40;;
27209;SDS011;14721;42.668;23.386;2024-02-23T05:15:15;9.40;;;5.43;;
27209;SDS011;14721;42.668;23.386;2024-02-23T05:17:40;13.10;;;6.40;;
27209;SDS011;14721;42.668;23.386;2024-02-23T05:20:06;13.07;;;6.43;;
27209;SDS011;14721;42.668;23.386;2024-02-23T05:22:35;16.70;;;7.60;;
27209;SDS011;14721;42.668;23.386;2024-02-23T05:25:01;13.97;;;6.97;;
27209;SDS011;14721;42.668;23.386;2024-02-23T05:27:27;12.73;;;6.60;;
27209;SDS011;14721;42.668;23.386;2024-02-23T05:29:53;13.80;;;7.57;;
27209;SDS011;14721;42.668;23.386;2024-02-23T05:32:18;17.03;;;7.33;;
27209;SDS011;14721;42.668;23.386;2024-02-23T05:34:44;15.93;;;7.53;;
27209;SDS011;14721;42.668;23.386;2024-02-23T05:37:13;18.13;;;8.07;;
27209;SDS011;14721;42.668;23.386;2024-02-23T05:39:41;22.30;;;8.33;;
27209;SDS011;14721;42.668;23.386;2024-02-23T05:42:07;16.00;;;8.03;;
27209;SDS011;14721;42.668;23.386;2024-02-23T05:44:35;18.60;;;8.20;;
27209;SDS011;14721;42.668;23.386;2024-02-23T05:47:01;18.73;;;8.53;;
27209;SDS011;14721;42.668;23.386;2024-02-23T05:49:26;18.77;;;9.10;;
27209;SDS011;14721;42.668;23.386;2024-02-23T05:51:54;19.90;;;10.03;;
27209;SDS011;14721;42.668;23.386;2024-02-23T05:54:20;17.23;;;8.53;;
27209;SDS011;14721;42.668;23.386;2024-02-23T05:56:45;20.33;;;9.77;;
27209;SDS011;14721;42.668;23.386;2024-02-23T05:59:12;23.93;;;9.77;;
27209;SDS011;14721;42.668;23.386;2024-02-23T06:01:38;18.33;;;8.97;;
27209;SDS011;14721;42.668;23.386;2024-02-23T06:04:03;17.43;;;8.77;;
27209;SDS011;14721;42.668;23.386;2024-02-23T06:06:30;23.67;;;8.53;;
27209;SDS011;14721;42.668;23.386;2024-02-23T06:08:57;21.40;;;8.83;;
27209;SDS011;14721;42.668;23.386;2024-02-23T06:11:22;16.37;;;9.27;;
27209;SDS011;14721;42.668;23.386;2024-02-23T06:13:48;17.90;;;9.40;;
27209;SDS011;14721;42.668;23.386;2024-02-23T06:16:13;22.23;;;9.27;;
27209;SDS011;14721;42.668;23.386;2024-02-23T06:18:39;20.47;;;10.53;;
27209;SDS011;14721;42.668;23.386;2024-02-23T06:21:17;13.40;;;7.53;;
27209;SDS011;14721;42.668;23.386;2024-02-23T06:23:43;15.00;;;8.83;;
27209;SDS011;14721;42.668;23.386;2024-02-23T06:26:09;22.03;;;9.70;;
27209;SDS011;14721;42.668;23.386;2024-02-23T06:28:35;16.63;;;9.43;;
27209;SDS011;14721;42.668;23.386;2024-02-23T06:31:06;20.17;;;10.43;;
27209;SDS011;14721;42.668;23.386;2024-02-23T06:33:32;23.00;;;10.43;;
27209;SDS011;14721;42.668;23.386;2024-02-23T06:35:57;16.67;;;8.87;;
27209;SDS011;14721;42.668;23.386;2024-02-23T06:38:23;16.53;;;8.27;;
27209;SDS011;14721;42.668;23.386;2024-02-23T06:40:48;18.47;;;9.93;;
27209;SDS011;14721;42.668;23.386;2024-02-23T06:43:14;18.40;;;10.20;;
27209;SDS011;14721;42.668;23.386;2024-02-23T06:45:39;21.43;;;10.17;;
27209;SDS011;14721;42.668;23.386;2024-02-23T06:48:05;22.03;;;10.97;;
27209;SDS011;14721;42.668;23.386;2024-02-23T06:50:31;22.27;;;9.93;;
27209;SDS011;14721;42.668;23.386;2024-02-23T06:52:56;18.98;;;9.43;;
27209;SDS011;14721;42.668;23.386;2024-02-23T06:55:22;19.23;;;9.53;;
27209;SDS011;14721;42.668;23.386;2024-02-23T06:57:50;16.50;;;9.53;;
27209;SDS011;14721;42.668;23.386;2024-02-23T07:00:15;18.33;;;9.30;;
27209;SDS011;14721;42.668;23.386;2024-02-23T07:02:41;14.33;;;9.10;;
27209;SDS011;14721;42.668;23.386;2024-02-23T07:05:06;17.63;;;9.97;;
27209;SDS011;14721;42.668;23.386;2024-02-23T07:07:32;17.40;;;9.67;;
27209;SDS011;14721;42.668;23.386;2024-02-23T07:09:59;20.60;;;9.40;;
27209;SDS011;14721;42.668;23.386;2024-02-23T07:12:25;17.53;;;10.67;;
27209;SDS011;14721;42.668;23.386;2024-02-23T07:14:54;20.67;;;10.67;;
27209;SDS011;14721;42.668;23.386;2024-02-23T07:17:22;22.17;;;11.27;;
27209;SDS011;14721;42.668;23.386;2024-02-23T07:19:48;20.25;;;10.30;;
27209;SDS011;14721;42.668;23.386;2024-02-23T07:22:15;19.87;;;10.97;;
27209;SDS011;14721;42.668;23.386;2024-02-23T07:24:43;19.90;;;10.38;;
27209;SDS011;14721;42.668;23.386;2024-02-23T07:27:09;22.58;;;10.57;;
27209;SDS011;14721;42.668;23.386;2024-02-23T07:29:34;17.55;;;10.48;;
27209;SDS011;14721;42.668;23.386;2024-02-23T07:32:00;19.33;;;9.77;;
27209;SDS011;14721;42.668;23.386;2024-02-23T07:34:26;15.40;;;8.20;;
27209;SDS011;14721;42.668;23.386;2024-02-23T07:36:51;17.92;;;8.75;;
27209;SDS011;14721;42.668;23.386;2024-02-23T07:39:17;14.68;;;8.23;;
27209;SDS011;14721;42.668;23.386;2024-02-23T07:41:43;15.77;;;8.88;;
27209;SDS011;14721;42.668;23.386;2024-02-23T07:44:09;11.93;;;7.53;;
27209;SDS011;14721;42.668;23.386;2024-02-23T07:46:34;16.20;;;8.15;;
27209;SDS011;14721;42.668;23.386;2024-02-23T07:49:00;12.90;;;8.60;;
27209;SDS011;14721;42.668;23.386;2024-02-23T07:51:25;11.88;;;7.03;;
27209;SDS011;14721;42.668;23.386;2024-02-23T07:53:51;13.85;;;6.70;;
27209;SDS011;14721;42.668;23.386;2024-02-23T07:56:16;11.13;;;6.50;;
27209;SDS011;14721;42.668;23.386;2024-02-23T07:58:43;10.60;;;6.22;;
27209;SDS011;14721;42.668;23.386;2024-02-23T08:01:09;11.82;;;5.65;;
27209;SDS011;14721;42.668;23.386;2024-02-23T08:03:34;11.38;;;6.07;;
27209;SDS011;14721;42.668;23.386;2024-02-23T08:06:01;11.40;;;6.65;;
27209;SDS011;14721;42.668;23.386;2024-02-23T08:08:26;10.90;;;6.43;;
27209;SDS011;14721;42.668;23.386;2024-02-23T08:10:53;11.93;;;6.20;;
27209;SDS011;14721;42.668;23.386;2024-02-23T08:13:18;11.32;;;6.45;;
27209;SDS011;14721;42.668;23.386;2024-02-23T08:15:44;12.63;;;6.95;;
27209;SDS011;14721;42.668;23.386;2024-02-23T08:18:10;12.32;;;7.15;;
27209;SDS011;14721;42.668;23.386;2024-02-23T08:20:35;13.18;;;7.00;;
27209;SDS011;14721;42.668;23.386;2024-02-23T08:23:01;10.75;;;6.35;;
27209;SDS011;14721;42.668;23.386;2024-02-23T08:25:27;11.80;;;7.03;;
27209;SDS011;14721;42.668;23.386;2024-02-23T08:27:55;12.82;;;7.00;;
27209;SDS011;14721;42.668;23.386;2024-02-23T08:30:24;11.93;;;6.22;;
27209;SDS011;14721;42.668;23.386;2024-02-23T08:32:49;12.88;;;7.35;;
27209;SDS011;14721;42.668;23.386;2024-02-23T08:35:15;10.20;;;6.28;;
27209;SDS011;14721;42.668;23.386;2024-02-23T08:37:40;11.90;;;6.03;;
27209;SDS011;14721;42.668;23.386;2024-02-23T08:40:08;14.80;;;7.43;;
27209;SDS011;14721;42.668;23.386;2024-02-23T08:42:33;15.52;;;8.02;;
27209;SDS011;14721;42.668;23.386;2024-02-23T08:44:59;13.57;;;7.15;;
27209;SDS011;14721;42.668;23.386;2024-02-23T08:47:25;12.45;;;7.45;;
27209;SDS011;14721;42.668;23.386;2024-02-23T08:49:56;12.95;;;5.72;;
27209;SDS011;14721;42.668;23.386;2024-02-23T08:52:23;12.20;;;6.68;;
27209;SDS011;14721;42.668;23.386;2024-02-23T08:54:48;10.75;;;6.70;;
27209;SDS011;14721;42.668;23.386;2024-02-23T08:57:14;11.27;;;6.60;;
27209;SDS011;14721;42.668;23.386;2024-02-23T08:59:44;10.23;;;6.55;;
27209;SDS011;14721;42.668;23.386;2024-02-23T09:02:10;13.90;;;7.15;;
27209;SDS011;14721;42.668;23.386;2024-02-23T09:04:35;12.60;;;6.60;;
27209;SDS011;14721;42.668;23.386;2024-02-23T09:07:02;14.98;;;7.15;;
27209;SDS011;14721;42.668;23.386;2024-02-23T09:09:28;10.67;;;5.90;;
27209;SDS011;14721;42.668;23.386;2024-02-23T09:11:54;15.17;;;6.07;;
27209;SDS011;14721;42.668;23.386;2024-02-23T09:14:19;11.23;;;6.10;;
27209;SDS011;14721;42.668;23.386;2024-02-23T09:16:45;12.30;;;6.13;;
27209;SDS011;14721;42.668;23.386;2024-02-23T09:19:12;8.10;;;5.05;;
27209;SDS011;14721;42.668;23.386;2024-02-23T09:21:39;10.63;;;5.18;;
27209;SDS011;14721;42.668;23.386;2024-02-23T09:24:04;9.63;;;5.53;;
27209;SDS011;14721;42.668;23.386;2024-02-23T09:26:30;9.30;;;5.50;;
27209;SDS011;14721;42.668;23.386;2024-02-23T09:28:56;8.32;;;5.25;;
27209;SDS011;14721;42.668;23.386;2024-02-23T09:31:22;9.43;;;5.32;;
27209;SDS011;14721;42.668;23.386;2024-02-23T09:33:48;9.20;;;4.53;;
27209;SDS011;14721;42.668;23.386;2024-02-23T09:36:16;11.05;;;5.30;;
27209;SDS011;14721;42.668;23.386;2024-02-23T09:38:42;9.07;;;4.20;;
27209;SDS011;14721;42.668;23.386;2024-02-23T09:41:11;9.75;;;4.30;;
27209;SDS011;14721;42.668;23.386;2024-02-23T09:43:44;6.82;;;4.10;;
27209;SDS011;14721;42.668;23.386;2024-02-23T09:46:11;10.15;;;4.43;;
27209;SDS011;14721;42.668;23.386;2024-02-23T09:48:37;8.73;;;4.57;;
27209;SDS011;14721;42.668;23.386;2024-02-23T09:51:05;5.93;;;3.33;;
27209;SDS011;14721;42.668;23.386;2024-02-23T09:53:31;6.15;;;3.25;;
27209;SDS011;14721;42.668;23.386;2024-02-23T09:56:01;5.63;;;3.13;;
27209;SDS011;14721;42.668;23.386;2024-02-23T09:58:29;4.70;;;2.70;;
27209;SDS011;14721;42.668;23.386;2024-02-23T10:00:57;6.38;;;2.75;;
27209;SDS011;14721;42.668;23.386;2024-02-23T10:03:25;5.38;;;2.60;;
27209;SDS011;14721;42.668;23.386;2024-02-23T10:05:53;5.05;;;2.75;;
27209;SDS011;14721;42.668;23.386;2024-02-23T10:08:19;5.32;;;2.70;;
27209;SDS011;14721;42.668;23.386;2024-02-23T10:10:47;4.07;;;2.13;;
27209;SDS011;14721;42.668;23.386;2024-02-23T10:13:19;5.70;;;2.70;;
27209;SDS011;14721;42.668;23.386;2024-02-23T10:15:51;5.68;;;2.63;;
27209;SDS011;14721;42.668;23.386;2024-02-23T10:18:17;7.72;;;2.97;;
27209;SDS011;14721;42.668;23.386;2024-02-23T10:20:43;5.18;;;2.72;;
27209;SDS011;14721;42.668;23.386;2024-02-23T10:23:09;3.80;;;2.42;;
27209;SDS011;14721;42.668;23.386;2024-02-23T10:25:35;4.35;;;2.47;;
27209;SDS011;14721;42.668;23.386;2024-02-23T10:28:02;3.30;;;1.90;;
27209;SDS011;14721;42.668;23.386;2024-02-23T10:30:28;4.45;;;2.38;;
27209;SDS011;14721;42.668;23.386;2024-02-23T10:32:55;3.60;;;2.10;;
27209;SDS011;14721;42.668;23.386;2024-02-23T10:35:22;4.72;;;2.10;;
27209;SDS011;14721;42.668;23.386;2024-02-23T10:37:49;4.15;;;2.20;;
27209;SDS011;14721;42.668;23.386;2024-02-23T10:40:17;3.92;;;2.13;;
27209;SDS011;14721;42.668;23.386;2024-02-23T10:42:44;2.95;;;1.95;;
27209;SDS011;14721;42.668;23.386;2024-02-23T10:45:16;7.75;;;3.00;;
27209;SDS011;14721;42.668;23.386;2024-02-23T10:47:48;3.42;;;2.20;;
27209;SDS011;14721;42.668;23.386;2024-02-23T10:50:15;3.25;;;1.85;;
27209;SDS011;14721;42.668;23.386;2024-02-23T10:52:43;5.00;;;2.83;;
27209;SDS011;14721;42.668;23.386;2024-02-23T10:55:09;5.63;;;1.80;;
27209;SDS011;14721;42.668;23.386;2024-02-23T10:57:35;4.05;;;2.30;;
27209;SDS011;14721;42.668;23.386;2024-02-23T11:00:02;6.05;;;2.28;;
27209;SDS011;14721;42.668;23.386;2024-02-23T11:02:36;4.25;;;2.22;;
27209;SDS011;14721;42.668;23.386;2024-02-23T11:05:06;4.00;;;2.10;;
27209;SDS011;14721;42.668;23.386;2024-02-23T11:07:37;13.20;;;2.47;;
27209;SDS011;14721;42.668;23.386;2024-02-23T11:10:05;3.25;;;1.55;;
27209;SDS011;14721;42.668;23.386;2024-02-23T11:12:31;3.15;;;2.20;;
27209;SDS011;14721;42.668;23.386;2024-02-23T11:15:00;4.80;;;1.98;;
27209;SDS011;14721;42.668;23.386;2024-02-23T11:17:29;3.85;;;1.88;;
27209;SDS011;14721;42.668;23.386;2024-02-23T11:19:56;3.10;;;1.60;;
27209;SDS011;14721;42.668;23.386;2024-02-23T11:22:25;6.57;;;2.00;;
27209;SDS011;14721;42.668;23.386;2024-02-23T11:24:51;3.83;;;2.08;;
27209;SDS011;14721;42.668;23.386;2024-02-23T11:27:17;4.60;;;2.35;;
27209;SDS011;14721;42.668;23.386;2024-02-23T11:29:45;5.63;;;1.75;;
27209;SDS011;14721;42.668;23.386;2024-02-23T11:32:13;4.35;;;2.00;;
27209;SDS011;14721;42.668;23.386;2024-02-23T11:34:53;6.20;;;2.03;;
27209;SDS011;14721;42.668;23.386;2024-02-23T11:37:20;5.88;;;2.40;;
27209;SDS011;14721;42.668;23.386;2024-02-23T11:39:46;6.80;;;1.73;;
27209;SDS011;14721;42.668;23.386;2024-02-23T11:42:12;3.80;;;1.90;;
27209;SDS011;14721;42.668;23.386;2024-02-23T11:44:37;4.53;;;1.92;;
27209;SDS011;14721;42.668;23.386;2024-02-23T11:47:03;2.33;;;1.50;;
27209;SDS011;14721;42.668;23.386;2024-02-23T11:49:29;4.70;;;1.90;;
27209;SDS011;14721;42.668;23.386;2024-02-23T11:51:55;2.72;;;1.88;;
27209;SDS011;14721;42.668;23.386;2024-02-23T11:54:21;3.75;;;1.92;;
27209;SDS011;14721;42.668;23.386;2024-02-23T11:56:48;3.20;;;1.80;;
27209;SDS011;14721;42.668;23.386;2024-02-23T11:59:15;2.88;;;1.67;;
27209;SDS011;14721;42.668;23.386;2024-02-23T12:01:41;4.47;;;1.73;;
27209;SDS011;14721;42.668;23.386;2024-02-23T12:04:07;4.45;;;1.70;;
27209;SDS011;14721;42.668;23.386;2024-02-23T12:06:33;3.58;;;1.50;;
27209;SDS011;14721;42.668;23.386;2024-02-23T12:08:59;3.75;;;1.45;;
27209;SDS011;14721;42.668;23.386;2024-02-23T12:11:26;3.70;;;2.03;;
27209;SDS011;14721;42.668;23.386;2024-02-23T12:13:52;2.20;;;1.35;;
27209;SDS011;14721;42.668;23.386;2024-02-23T12:16:18;3.33;;;1.70;;
27209;SDS011;14721;42.668;23.386;2024-02-23T12:18:52;3.40;;;1.50;;
27209;SDS011;14721;42.668;23.386;2024-02-23T12:21:19;2.78;;;1.60;;
27209;SDS011;14721;42.668;23.386;2024-02-23T12:23:45;2.80;;;1.40;;
27209;SDS011;14721;42.668;23.386;2024-02-23T12:26:13;3.03;;;1.45;;
27209;SDS011;14721;42.668;23.386;2024-02-23T12:28:40;2.92;;;1.58;;
27209;SDS011;14721;42.668;23.386;2024-02-23T12:31:06;2.63;;;1.30;;
27209;SDS011;14721;42.668;23.386;2024-02-23T12:33:35;3.08;;;1.70;;
27209;SDS011;14721;42.668;23.386;2024-02-23T12:36:05;3.13;;;1.67;;
27209;SDS011;14721;42.668;23.386;2024-02-23T12:38:32;4.97;;;1.90;;
27209;SDS011;14721;42.668;23.386;2024-02-23T12:40:59;3.10;;;1.35;;
27209;SDS011;14721;42.668;23.386;2024-02-23T12:43:25;3.58;;;1.33;;
27209;SDS011;14721;42.668;23.386;2024-02-23T12:45:52;1.98;;;1.10;;
27209;SDS011;14721;42.668;23.386;2024-02-23T12:48:19;3.30;;;1.45;;
27209;SDS011;14721;42.668;23.386;2024-02-23T12:50:46;3.30;;;1.30;;
27209;SDS011;14721;42.668;23.386;2024-02-23T12:56:10;2.47;;;0.93;;
27209;SDS011;14721;42.668;23.386;2024-02-23T12:58:37;2.17;;;1.10;;
27209;SDS011;14721;42.668;23.386;2024-02-23T13:01:03;2.53;;;1.33;;
27209;SDS011;14721;42.668;23.386;2024-02-23T13:03:32;2.97;;;1.48;;
27209;SDS011;14721;42.668;23.386;2024-02-23T13:05:59;2.92;;;1.65;;
27209;SDS011;14721;42.668;23.386;2024-02-23T13:08:28;4.85;;;1.75;;
27209;SDS011;14721;42.668;23.386;2024-02-23T13:10:54;3.28;;;1.52;;
27209;SDS011;14721;42.668;23.386;2024-02-23T13:13:20;3.25;;;1.75;;
27209;SDS011;14721;42.668;23.386;2024-02-23T13:15:47;2.45;;;1.20;;
27209;SDS011;14721;42.668;23.386;2024-02-23T13:18:13;2.63;;;1.27;;
27209;SDS011;14721;42.668;23.386;2024-02-23T13:20:39;2.30;;;1.20;;
27209;SDS011;14721;42.668;23.386;2024-02-23T13:23:08;1.77;;;0.93;;
27209;SDS011;14721;42.668;23.386;2024-02-23T13:25:35;3.28;;;1.30;;
27209;SDS011;14721;42.668;23.386;2024-02-23T13:28:01;1.65;;;0.95;;
27209;SDS011;14721;42.668;23.386;2024-02-23T13:30:27;3.72;;;1.25;;
27209;SDS011;14721;42.668;23.386;2024-02-23T13:32:53;3.30;;;1.45;;
27209;SDS011;14721;42.668;23.386;2024-02-23T13:35:19;2.35;;;1.20;;
27209;SDS011;14721;42.668;23.386;2024-02-23T13:37:45;2.50;;;1.20;;
27209;SDS011;14721;42.668;23.386;2024-02-23T13:40:11;1.48;;;0.85;;
27209;SDS011;14721;42.668;23.386;2024-02-23T13:42:37;2.03;;;1.20;;
27209;SDS011;14721;42.668;23.386;2024-02-23T13:45:04;3.70;;;1.00;;
27209;SDS011;14721;42.668;23.386;2024-02-23T13:47:31;3.13;;;1.27;;
27209;SDS011;14721;42.668;23.386;2024-02-23T13:49:57;2.58;;;1.20;;
27209;SDS011;14721;42.668;23.386;2024-02-23T13:52:22;2.45;;;1.33;;
27209;SDS011;14721;42.668;23.386;2024-02-23T13:54:48;5.30;;;1.30;;
27209;SDS011;14721;42.668;23.386;2024-02-23T13:57:16;2.40;;;1.05;;
27209;SDS011;14721;42.668;23.386;2024-02-23T13:59:43;2.45;;;1.52;;
27209;SDS011;14721;42.668;23.386;2024-02-23T14:02:09;5.65;;;1.30;;
27209;SDS011;14721;42.668;23.386;2024-02-23T14:04:34;2.78;;;1.13;;
27209;SDS011;14721;42.668;23.386;2024-02-23T14:07:00;4.40;;;1.92;;
27209;SDS011;14721;42.668;23.386;2024-02-23T14:09:26;3.05;;;1.30;;
27209;SDS011;14721;42.668;23.386;2024-02-23T14:11:51;2.95;;;1.42;;
27209;SDS011;14721;42.668;23.386;2024-02-23T14:14:17;3.25;;;1.23;;
27209;SDS011;14721;42.668;23.386;2024-02-23T14:16:43;3.35;;;1.10;;
27209;SDS011;14721;42.668;23.386;2024-02-23T14:19:08;4.10;;;1.45;;
27209;SDS011;14721;42.668;23.386;2024-02-23T14:21:36;2.83;;;1.50;;
27209;SDS011;14721;42.668;23.386;2024-02-23T14:24:02;2.60;;;1.40;;
27209;SDS011;14721;42.668;23.386;2024-02-23T14:26:28;2.95;;;1.52;;
27209;SDS011;14721;42.668;23.386;2024-02-23T14:28:54;4.28;;;1.30;;
27209;SDS011;14721;42.668;23.386;2024-02-23T14:31:19;1.80;;;1.02;;
27209;SDS011;14721;42.668;23.386;2024-02-23T14:33:45;3.45;;;1.50;;
27209;SDS011;14721;42.668;23.386;2024-02-23T14:36:10;2.42;;;1.20;;
27209;SDS011;14721;42.668;23.386;2024-02-23T14:38:36;2.58;;;1.58;;